createdAt,value
2022-09-04T00:04:26.385Z,100766.60
2022-09-04T00:09:57.946Z,100768.98
2022-09-04T00:15:20.713Z,100771.61
2022-09-04T00:20:29.967Z,100768.67
2022-09-04T00:25:55.084Z,100776.23
2022-09-04T00:31:27.310Z,100776.60
2022-09-04T00:36:31.605Z,100779.27
2022-09-04T00:42:22.535Z,100777.22
2022-09-04T00:48:05.472Z,100780.94
2022-09-04T00:53:26.808Z,100786.48
2022-09-04T00:58:33.806Z,100789.66
2022-09-04T01:04:15.412Z,100794.89
2022-09-04T01:09:44.743Z,100797.20
2022-09-04T01:15:16.310Z,100792.40
2022-09-04T01:20:39.891Z,100793.50
2022-09-04T01:26:10.238Z,100796.75
2022-09-04T01:31:50.385Z,100792.70
2022-09-04T01:37:06.017Z,100786.70
2022-09-04T01:42:18.539Z,100790.31
2022-09-04T01:47:30.451Z,100786.38
2022-09-04T01:53:05.918Z,100789.92
2022-09-04T01:58:15.386Z,100787.86
2022-09-04T02:03:41.928Z,100788.36
2022-09-04T02:08:47.796Z,100792.14
2022-09-04T02:14:09.027Z,100792.38
2022-09-04T02:19:31.181Z,100790.11
2022-09-04T02:25:00.399Z,100787.25
2022-09-04T02:30:10.665Z,100787.17
2022-09-04T02:35:51.463Z,100784.05
2022-09-04T02:41:27.028Z,100778.61
2022-09-04T02:46:38.172Z,100781.81
2022-09-04T02:51:50.545Z,100786.23
2022-09-04T02:57:02.663Z,100786.25
2022-09-04T03:02:15.890Z,100789.77
2022-09-04T03:07:28.228Z,100785.98
2022-09-04T03:12:50.176Z,100784.52
2022-09-04T03:18:16.829Z,100788.77
2022-09-04T03:23:33.356Z,100786.61
2022-09-04T03:29:01.568Z,100788.64
2022-09-04T03:34:11.208Z,100789.10
2022-09-04T03:39:31.274Z,100781.48
2022-09-04T03:44:50.471Z,100781.14
2022-09-04T03:50:18.282Z,100786.14
2022-09-04T03:55:48.479Z,100791.91
2022-09-04T04:01:27.197Z,100789.05
2022-09-04T04:06:30.476Z,100798.42
2022-09-04T04:11:51.601Z,100804.67
2022-09-04T04:17:22.661Z,100807.74
2022-09-04T04:22:45.218Z,100810.09
2022-09-04T04:28:07.581Z,100812.27
2022-09-04T04:33:42.842Z,100812.96
2022-09-04T04:39:01.204Z,100811.83
2022-09-04T04:44:17.497Z,100811.45
2022-09-04T04:49:29.431Z,100814.02
2022-09-04T04:54:51.687Z,100820.50
2022-09-04T05:00:08.723Z,100825.73
2022-09-04T05:05:23.805Z,100830.50
2022-09-04T05:10:42.067Z,100833.95
2022-09-04T05:16:10.249Z,100842.83
2022-09-04T05:21:38.560Z,100844.60
2022-09-04T05:26:50.372Z,100849.63
2022-09-04T05:32:05.675Z,100853.73
2022-09-04T05:37:23.781Z,100856.35
2022-09-04T05:42:42.901Z,100863.48
2022-09-04T05:47:46.209Z,100864.77
2022-09-04T05:53:11.024Z,100873.45
2022-09-04T05:58:20.206Z,100874.82
2022-09-04T06:03:38.739Z,100880.56
2022-09-04T06:08:52.394Z,100886.06
2022-09-04T06:14:07.418Z,100889.25
2022-09-04T06:19:38.541Z,100891.06
2022-09-04T06:25:10.754Z,100899.06
2022-09-04T06:30:16.131Z,100898.61
2022-09-04T06:35:27.198Z,100901.91
2022-09-04T06:40:39.195Z,100910.41
2022-09-04T06:46:24.168Z,100914.45
2022-09-04T06:51:39.579Z,100915.67
2022-09-04T06:56:54.567Z,100918.83
2022-09-04T07:02:22.700Z,100919.55
2022-09-04T07:07:44.755Z,100922.86
2022-09-04T07:13:25.903Z,100924.05
2022-09-04T07:18:54.812Z,100927.85
2022-09-04T07:24:02.832Z,100928.22
2022-09-04T07:29:25.750Z,100933.53
2022-09-04T07:34:35.467Z,100934.45
2022-09-04T07:40:30.799Z,100936.73
2022-09-04T07:45:35.390Z,100941.14
2022-09-04T07:51:05.097Z,100943.87
2022-09-04T07:56:39.505Z,100939.98
2022-09-04T08:01:57.578Z,100945.75
2022-09-04T08:07:10.796Z,100953.69
2022-09-04T08:12:35.781Z,100962.13
2022-09-04T08:17:58.183Z,100965.77
2022-09-04T08:23:17.366Z,100972.80
2022-09-04T08:28:36.143Z,100980.63
2022-09-04T08:33:45.593Z,100982.68
2022-09-04T08:38:49.110Z,100980.88
2022-09-04T08:43:58.667Z,100982.09
2022-09-04T08:49:12.011Z,100983.92
2022-09-04T08:54:33.349Z,100989.20
2022-09-04T09:00:08.887Z,100987.26
2022-09-04T09:05:46.936Z,100994.70
2022-09-04T09:11:15.436Z,100997.58
2022-09-04T09:16:20.649Z,101000.09
2022-09-04T09:21:39.364Z,100995.70
2022-09-04T09:26:55.884Z,101002.90
2022-09-04T09:32:40.154Z,101008.48
2022-09-04T09:38:04.682Z,101008.08
2022-09-04T09:43:53.543Z,101005.61
2022-09-04T09:49:27.063Z,101005.34
2022-09-04T09:54:51.877Z,101008.77
2022-09-04T10:00:13.724Z,101011.10
2022-09-04T10:05:19.797Z,101009.98
2022-09-04T10:10:46.196Z,101010.75
2022-09-04T10:16:06.662Z,101010.99
2022-09-04T10:21:21.156Z,101011.73
2022-09-04T10:26:43.185Z,101012.01
2022-09-04T10:32:07.486Z,101006.47
2022-09-04T10:37:35.578Z,101008.04
2022-09-04T10:43:12.886Z,101003.25
2022-09-04T10:48:28.870Z,101011.02
2022-09-04T10:54:15.726Z,101008.90
2022-09-04T10:59:36.546Z,101002.58
2022-09-04T11:04:49.381Z,100996.48
2022-09-04T11:10:11.428Z,101002.60
2022-09-04T11:15:41.774Z,101003.36
2022-09-04T11:21:21.436Z,101000.43
2022-09-04T11:27:05.974Z,101005.48
2022-09-04T11:32:38.306Z,101006.70
2022-09-04T11:37:41.515Z,101006.02
2022-09-04T11:43:15.953Z,101007.64
2022-09-04T11:48:31.656Z,101012.67
2022-09-04T11:54:00.976Z,101011.06
2022-09-04T11:59:28.452Z,101001.92
2022-09-04T12:04:43.539Z,101002.79
2022-09-04T12:10:11.257Z,100992.63
2022-09-04T12:15:38.804Z,100996.48
2022-09-04T12:20:57.065Z,100992.31
2022-09-04T12:26:21.881Z,100994.17
2022-09-04T12:31:51.927Z,100991.93
2022-09-04T12:37:24.413Z,100994.64
2022-09-04T12:42:51.989Z,100992.48
2022-09-04T12:48:20.492Z,100994.64
2022-09-04T12:53:47.015Z,100998.64
2022-09-04T12:59:25.795Z,100995.27
2022-09-04T13:04:41.087Z,100998.48
2022-09-04T13:09:57.805Z,100997.36
2022-09-04T13:15:22.424Z,101001.52
2022-09-04T13:20:57.470Z,101000.72
2022-09-04T13:26:30.170Z,100998.11
2022-09-04T13:32:10.655Z,101004.79
2022-09-04T13:37:45.602Z,101003.73
2022-09-04T13:42:54.752Z,101007.70
2022-09-04T13:48:08.917Z,101008.08
2022-09-04T13:53:21.546Z,101006.44
2022-09-04T13:58:34.379Z,101005.85
2022-09-04T14:04:02.854Z,101008.34
2022-09-04T14:09:07.113Z,101002.86
2022-09-04T14:14:31.209Z,100997.66
2022-09-04T14:19:59.506Z,100994.66
2022-09-04T14:25:16.096Z,100994.87
2022-09-04T14:30:23.310Z,100999.15
2022-09-04T14:36:05.861Z,101019.25
2022-09-04T14:41:24.738Z,101036.59
2022-09-04T14:46:56.429Z,101044.44
2022-09-04T14:52:10.068Z,101045.05
2022-09-04T14:57:39.899Z,101046.52
2022-09-04T15:02:56.418Z,101057.67
2022-09-04T15:08:03.569Z,101055.91
2022-09-04T15:13:19.998Z,101056.65
2022-09-04T15:18:34.304Z,101058.25
2022-09-04T15:24:26.988Z,101053.75
2022-09-04T15:29:33.974Z,101052.47
2022-09-04T15:34:38.745Z,101053.16
2022-09-04T15:39:49.148Z,101055.78
2022-09-04T15:44:52.811Z,101059.46
2022-09-04T15:50:01.858Z,101053.14
2022-09-04T15:55:30.155Z,101047.52
2022-09-04T16:00:56.682Z,101050.64
2022-09-04T16:06:06.676Z,101058.64
2022-09-04T16:11:22.172Z,101056.14
2022-09-04T16:16:48.936Z,101054.40
2022-09-04T16:22:27.774Z,101051.35
2022-09-04T16:27:32.172Z,101053.52
2022-09-04T16:32:36.342Z,101047.88
2022-09-04T16:37:50.406Z,101043.98
2022-09-04T16:43:17.064Z,101042.81
2022-09-04T16:48:34.548Z,101035.91
2022-09-04T16:53:50.922Z,101037.81
2022-09-04T16:59:00.787Z,101038.71
2022-09-04T17:04:17.204Z,101045.49
2022-09-04T17:09:30.140Z,101044.84
2022-09-04T17:14:43.591Z,101046.89
2022-09-04T17:20:04.928Z,101049.76
2022-09-04T17:29:10.276Z,101051.70
2022-09-04T17:30:56.889Z,101056.42
2022-09-04T17:40:52.230Z,101056.16
2022-09-04T17:42:08.471Z,101064.63
2022-09-04T17:47:34.552Z,101075.90
2022-09-04T17:53:04.123Z,101087.86
2022-09-04T17:58:11.232Z,101099.64
2022-09-04T18:04:02.888Z,101104.36
2022-09-04T18:09:40.022Z,101115.91
2022-09-04T18:15:12.902Z,101126.49
2022-09-04T18:20:51.590Z,101134.38
2022-09-04T18:26:22.473Z,101134.95
2022-09-04T18:37:12.806Z,101135.65
2022-09-04T18:37:46.387Z,101143.28
2022-09-04T18:46:06.574Z,101142.42
2022-09-04T18:50:30.866Z,101148.56
2022-09-04T18:53:51.432Z,101147.77
2022-09-04T18:59:01.097Z,101155.05
2022-09-04T19:04:45.418Z,101163.88
2022-09-04T19:10:21.137Z,101170.62
2022-09-04T19:15:27.474Z,101170.66
2022-09-04T19:21:26.232Z,101176.47
2022-09-04T19:26:47.658Z,101179.95
2022-09-04T19:32:07.754Z,101182.27
2022-09-04T19:38:22.640Z,101186.67
2022-09-04T19:46:02.488Z,101192.28
2022-09-04T19:52:58.935Z,101196.79
2022-09-04T19:55:25.024Z,101198.77
2022-09-04T20:00:43.065Z,101202.52
2022-09-04T20:06:20.255Z,101205.70
2022-09-04T20:11:38.295Z,101206.05
2022-09-04T20:17:13.919Z,101217.20
2022-09-04T20:22:48.961Z,101217.31
2022-09-04T20:28:16.437Z,101216.31
2022-09-04T20:33:27.148Z,101216.55
2022-09-04T20:38:51.220Z,101215.35
2022-09-04T20:44:15.932Z,101218.77
2022-09-04T20:52:55.662Z,101220.29
2022-09-04T20:55:46.082Z,101224.48
2022-09-04T21:03:23.715Z,101225.94
2022-09-04T21:06:32.166Z,101235.27
2022-09-04T21:11:43.646Z,101237.28
2022-09-04T21:17:33.487Z,101246.02
2022-09-04T21:23:05.862Z,101254.43
2022-09-04T21:28:33.945Z,101252.70
2022-09-04T21:33:55.894Z,101254.75
2022-09-04T21:39:10.878Z,101257.00
2022-09-04T21:44:22.793Z,101259.02
2022-09-04T21:49:38.285Z,101255.19
2022-09-04T21:56:44.851Z,101261.64
2022-09-04T22:02:41.131Z,101266.35
2022-09-04T22:06:03.692Z,101265.77
2022-09-04T22:13:38.285Z,101269.84
2022-09-04T22:16:52.499Z,101271.11
2022-09-04T22:22:03.548Z,101270.36
2022-09-04T22:27:28.407Z,101268.02
2022-09-04T22:33:16.673Z,101270.83
2022-09-04T22:38:35.138Z,101273.38
2022-09-04T22:43:46.845Z,101275.73
2022-09-04T22:49:20.057Z,101274.38
2022-09-04T22:54:50.709Z,101277.38
2022-09-04T23:00:13.068Z,101274.70
2022-09-04T23:05:35.014Z,101273.54
2022-09-04T23:14:02.315Z,101276.32
2022-09-04T23:16:54.543Z,101275.27
2022-09-04T23:26:45.679Z,101272.81
2022-09-04T23:28:40.800Z,101277.59
2022-09-04T23:33:56.502Z,101273.33
2022-09-04T23:39:35.409Z,101274.06
2022-09-04T23:45:30.574Z,101276.17
2022-09-04T23:50:59.894Z,101282.17
2022-09-04T23:56:42.837Z,101283.66
